Latest Coastal Weather Observations for Yeppoon

IDQ60701

Issued at 10:02 am EST Saturday 19 August 2017 (issued every 10 minutes, with the page automatically refreshed every 10 minutes)

About coastal observations | Map of coastal stations | Coastal observations for QLD | Marine services | Other Formats
Station Details ID: 033294 Name: YEPPOON THE ESPLANADE Lat: -23.14 Lon: 150.75 Height: 5.5 m
Data from the previous 72 hours. | See also: Recent months at Yeppoon
Date/Time
EST
Temp
°C
Wind Pressure Rain since
9am
mm
Weather Cloud Vis
km
Sea
Height
m
Swell
Dir  Spd
kts
Gust
kts
hPa Trend Height
m
Period
s
Dir
19/10:00am 20.5 SSW 11 16 1019.6 - 0.0 - - - - - - -
19/09:30am 19.7 S 9 16 1020.0 - 0.0 - - - - - - -
19/09:00am 19.2 SSW 9 16 1020.2 - 0.2 - - - - - - -
19/08:30am 18.5 SSW 6 10 1020.2 - 0.2 - - - - - - -
19/08:00am 17.9 SSW 7 11 1020.2 - 0.2 - - - - - - -
19/07:30am 16.6 SW 3 4 1019.9 - 0.2 - - - - - - -
19/07:00am 15.2 SW 3 6 1019.5 - 0.2 - - - - - - -
19/06:30am 15.0 SW 7 10 1019.1 - 0.2 - - - - - - -
19/06:00am 13.1 SW 6 7 1018.8 - 0.2 - - - - - - -
19/05:30am 13.7 SW 6 7 1018.4 - 0.2 - - - - - - -
19/05:00am 13.0 SW 5 8 1018.0 - 0.2 - - - - - - -
19/04:30am 11.1 W 6 7 1017.7 - 0.2 - - - - - - -
19/04:00am 12.1 W 6 6 1017.4 - 0.2 - - - - - - -
19/03:30am 12.8 W 4 5 1017.1 - 0.2 - - - - - - -
19/03:00am 13.7 W 8 9 1017.1 - 0.2 - - - - - - -
19/02:30am 14.3 W 6 8 1017.1 - 0.2 - - - - - - -
19/02:00am 15.7 W 7 8 1017.1 - 0.2 - - - - - - -
19/01:30am 16.9 WSW 7 8 1017.1 - 0.2 - - - - - - -
19/01:00am 16.6 W 7 9 1017.1 - 0.2 - - - - - - -
19/12:30am 15.7 W 5 6 1017.2 - 0.2 - - - - - - -
19/12:00am 16.7 W 7 8 1017.3 - 0.2 - - - - - - -
 
Date/Time
EST
Temp
°C
Wind Pressure Rain since
9am
mm
Weather Cloud Vis
km
Sea
Height
m
Swell
Dir  Spd
kts
Gust
kts
hPa Trend Height
m
Period
s
Dir
18/11:30pm 17.2 W 6 8 1017.3 - 0.2 - - - - - - -
18/11:00pm 17.6 W 7 9 1017.3 - 0.2 - - - - - - -
18/10:30pm 17.5 W 5 7 1017.1 - 0.2 - - - - - - -
18/10:00pm 17.5 WNW 6 7 1017.1 - 0.2 - - - - - - -
18/09:30pm 17.2 WNW 5 7 1016.8 - 0.2 - - - - - - -
18/09:00pm 18.1 N 4 5 1016.5 - 0.2 - - - - - - -
18/08:30pm 19.0 N 3 4 1016.3 - 0.2 - - - - - - -
18/08:00pm 21.1 N 2 5 1015.9 - 0.2 - - - - - - -
18/07:30pm 22.8 N 4 7 1015.6 - 0.2 - - - - - - -
18/07:00pm 23.2 N 6 9 1015.2 - 0.2 - - - - - - -
18/06:30pm 23.1 N 6 8 1015.0 - 0.2 - - - - - - -
18/06:00pm 23.6 NNE 7 8 1014.7 - 0.2 - - - - - - -
18/05:30pm 24.0 NNE 7 10 1014.6 - 0.2 - - - - - - -
18/05:00pm 24.3 NNE 10 11 1014.1 - 0.2 - - - - - - -
18/04:30pm 24.1 NNE 11 13 1013.9 - 0.2 - - - - - - -
18/04:00pm 24.4 NNE 9 11 1013.7 - 0.2 - - - - - - -
18/03:30pm 24.7 NNE 9 11 1013.7 - 0.2 - - - - - - -
18/03:00pm 25.2 NNE 10 11 1013.7 - 0.2 - - - - - - -
18/02:30pm 25.3 NNE 10 11 1014.0 - 0.2 - - - - - - -
18/02:00pm 26.2 NNE 9 10 1014.2 - 0.2 - - - - - - -
18/01:30pm 26.0 NE 6 8 1014.6 - 0.2 - - - - - - -
18/01:00pm 25.8 NE 6 8 1015.2 - 0.2 - - - - - - -
18/12:30pm 25.1 NE 8 9 1015.5 - 0.2 - - - - - - -
18/12:00pm 25.1 E 9 11 1015.9 - 0.2 - - - - - - -
18/11:30am 24.9 E 11 13 1016.4 - 0.2 - - - - - - -
18/11:00am 27.2 SSE 5 11 1016.7 - 0.2 - - - - - - -
18/10:30am 26.0 WSW 6 10 1017.1 - 0.2 - - - - - - -
18/10:00am 24.7 W 8 11 1017.3 - 0.0 - - - - - - -
18/09:30am 23.4 WSW 9 13 1017.3 - 0.0 - - - - - - -
18/09:00am 22.2 W 10 13 1017.3 - 0.0 - - - - - - -
18/08:30am 21.4 W 10 13 1017.2 - 0.0 - - - - - - -
18/08:00am 20.6 W 9 14 1017.0 - 0.0 - - - - - - -
18/07:30am 20.0 W 10 15 1016.7 - 0.0 - - - - - - -
18/07:00am 19.4 W 8 11 1016.2 - 0.0 - - - - - - -
18/06:30am 19.0 WSW 8 10 1016.2 - 0.0 - - - - - - -
18/06:00am 19.0 W 7 9 1015.9 - 0.0 - - - - - - -
18/05:30am 18.8 W 7 9 1015.4 - 0.0 - - - - - - -
18/05:00am 19.1 W 9 14 1014.8 - 0.0 - - - - - - -
18/04:30am 19.3 W 11 14 1014.4 - 0.0 - - - - - - -
18/04:00am 19.8 W 11 15 1014.3 - 0.0 - - - - - - -
18/03:30am 19.5 W 9 14 1014.3 - 0.0 - - - - - - -
18/03:00am 18.8 WNW 7 11 1014.7 - 0.0 - - - - - - -
18/02:30am 18.2 W 5 7 1015.4 - 0.0 - - - - - - -
18/02:00am 18.0 SSW 5 6 1015.5 - 0.0 - - - - - - -
18/01:30am 17.6 WNW 4 5 1014.6 - 0.0 - - - - - - -
18/01:00am 17.7 WNW 5 5 1014.5 - 0.0 - - - - - - -
18/12:30am 18.1 WNW 3 4 1014.7 - 0.0 - - - - - - -
18/12:00am 18.5 WNW 4 5 1014.8 - 0.0 - - - - - - -
 
Date/Time
EST
Temp
°C
Wind Pressure Rain since
9am
mm
Weather Cloud Vis
km
Sea
Height
m
Swell
Dir  Spd
kts
Gust
kts
hPa Trend Height
m
Period
s
Dir
17/11:30pm 19.1 WNW 3 4 1014.8 - 0.0 - - - - - - -
17/11:00pm 19.5 WNW 6 7 1014.9 - 0.0 - - - - - - -
17/10:30pm 19.4 WNW 3 6 1014.8 - 0.0 - - - - - - -
17/10:00pm 19.7 WNW 4 5 1014.8 - 0.0 - - - - - - -
17/09:30pm 20.3 NW 5 7 1014.7 - 0.0 - - - - - - -
17/09:00pm 20.3 N 3 4 1014.7 - 0.0 - - - - - - -
17/08:30pm 20.6 N 4 5 1014.7 - 0.0 - - - - - - -
17/08:00pm 21.6 CALM 0 3 1014.4 - 0.0 - - - - - - -
17/07:30pm 22.1 N 5 7 1013.9 - 0.0 - - - - - - -
17/07:00pm 22.9 N 9 10 1013.3 - 0.0 - - - - - - -
17/06:30pm 23.9 N 7 9 1013.0 - 0.0 - - - - - - -
17/06:00pm 25.2 NNW 5 8 1012.5 - 0.0 - - - - - - -
17/05:30pm 25.7 N 10 13 1012.1 - 0.0 - - - - - - -
17/05:00pm 25.1 NNE 12 14 1011.7 - 0.0 - - - - - - -
17/04:30pm 24.1 NE 12 15 1011.4 - 0.0 - - - - - - -
17/04:00pm 23.8 NE 13 16 1011.3 - 0.0 - - - - - - -
17/03:30pm 24.0 NE 13 16 1011.4 - 0.0 - - - - - - -
17/03:00pm 24.1 NNE 13 15 1011.5 - 0.0 - - - - - - -
17/02:30pm 24.3 NNE 13 16 1011.7 - 0.0 - - - - - - -
17/02:00pm 24.7 NE 13 17 1012.1 - 0.0 - - - - - - -
17/01:30pm 24.7 NE 9 13 1012.5 - 0.0 - - - - - - -
17/01:00pm 24.9 NE 7 11 1013.1 - 0.0 - - - - - - -
17/12:30pm 25.0 NE 9 11 1013.5 - 0.0 - - - - - - -
17/12:00pm 24.4 ENE 7 8 1013.9 - 0.0 - - - - - - -
17/11:30am 23.8 ENE 7 9 1014.7 - 0.0 - - - - - - -
17/11:00am 23.4 ENE 8 9 1015.3 - 0.0 - - - - - - -
17/10:30am 23.2 ENE 6 7 1015.6 - 0.0 - - - - - - -
17/10:00am 23.4 NE 7 8 1015.9 - 0.0 - - - - - - -
17/09:30am 23.0 WNW 6 10 1016.1 - 0.0 - - - - - - -
17/09:00am 21.8 W 5 8 1016.3 - 0.0 - - - - - - -
17/08:30am 19.4 WNW 4 6 1016.3 - 0.0 - - - - - - -
17/08:00am 17.6 WNW 4 5 1016.1 - 0.0 - - - - - - -
17/07:30am 16.0 WNW 3 4 1015.9 - 0.0 - - - - - - -
17/07:00am 14.0 WNW 6 7 1015.7 - 0.0 - - - - - - -
17/06:30am 14.0 WNW 6 7 1015.6 - 0.0 - - - - - - -
17/06:00am 13.9 WNW 3 5 1015.2 - 0.0 - - - - - - -
17/05:30am 14.0 NW 6 7 1014.7 - 0.0 - - - - - - -
17/05:00am 14.2 NW 4 6 1014.7 - 0.0 - - - - - - -
17/04:30am 14.2 CALM 0 0 1014.7 - 0.0 - - - - - - -
17/04:00am 14.7 NW 3 5 1014.6 - 0.0 - - - - - - -
17/03:30am 15.3 NW 5 6 1014.7 - 0.0 - - - - - - -
17/03:00am 15.1 NW 5 6 1014.8 - 0.0 - - - - - - -
17/02:30am 15.3 NW 2 6 1014.8 - 0.0 - - - - - - -
17/02:00am 16.1 NW 5 6 1015.0 - 0.0 - - - - - - -
17/01:30am 16.0 NNW 4 7 1015.2 - 0.0 - - - - - - -
17/01:00am 16.3 N 3 5 1015.5 - 0.0 - - - - - - -
17/12:30am 16.8 CALM 0 0 1015.6 - 0.0 - - - - - - -
17/12:00am 17.2 N 1 3 1015.7 - 0.0 - - - - - - -
 
Date/Time
EST
Temp
°C
Wind Pressure Rain since
9am
mm
Weather Cloud Vis
km
Sea
Height
m
Swell
Dir  Spd
kts
Gust
kts
hPa Trend Height
m
Period
s
Dir
16/11:30pm 17.8 N 1 4 1015.9 - 0.0 - - - - - - -
16/11:00pm 19.0 N 1 3 1015.7 - 0.0 - - - - - - -
16/10:30pm 19.3 N 6 8 1015.6 - 0.0 - - - - - - -
16/10:00pm 19.7 N 7 8 1015.6 - 0.0 - - - - - - -
16/09:30pm 20.1 N 6 8 1015.7 - 0.0 - - - - - - -
16/09:00pm 20.2 N 5 7 1015.6 - 0.0 - - - - - - -
16/08:30pm 20.7 N 4 5 1015.6 - 0.0 - - - - - - -
16/08:00pm 20.9 N 5 8 1015.4 - 0.0 - - - - - - -
16/07:30pm 21.1 N 9 11 1015.0 - 0.0 - - - - - - -
16/07:00pm 21.7 N 13 16 1014.5 - 0.0 - - - - - - -
16/06:30pm 22.2 N 13 16 1014.1 - 0.0 - - - - - - -
16/06:00pm 22.5 N 16 18 1013.8 - 0.0 - - - - - - -
16/05:30pm 22.7 N 20 22 1013.5 - 0.0 - - - - - - -
16/05:00pm 22.7 NNE 21 24 1013.2 - 0.0 - - - - - - -
16/04:30pm 22.9 NNE 21 24 1013.0 - 0.0 - - - - - - -
16/04:00pm 23.1 NNE 21 25 1013.0 - 0.0 - - - - - - -
16/03:30pm 23.2 NNE 20 25 1013.0 - 0.0 - - - - - - -
16/03:00pm 23.5 NNE 20 24 1013.4 - 0.0 - - - - - - -
16/02:30pm 23.7 NNE 19 22 1013.8 - 0.0 - - - - - - -
16/02:00pm 23.9 NNE 18 23 1014.1 - 0.0 - - - - - - -
16/01:30pm 24.2 NNE 18 21 1014.4 - 0.0 - - - - - - -
16/01:00pm 24.3 NNE 16 18 1014.9 - 0.0 - - - - - - -
16/12:30pm 24.5 NNE 15 17 1015.5 - 0.0 - - - - - - -
16/12:00pm 24.0 NE 10 12 1016.1 - 0.0 - - - - - - -
16/11:30am 24.1 NE 10 13 1016.7 - 0.0 - - - - - - -
16/11:00am 24.6 NE 10 14 1017.1 - 0.0 - - - - - - -
16/10:30am 25.2 NNE 10 14 1017.5 - 0.0 - - - - - - -

Other Formats:

Comma delimited format used in spreadsheet applications
http://www.bom.gov.au/fwo/IDQ60701/IDQ60701.94373.axf

JavaScript Object Notation format (JSON) in row-major order
http://www.bom.gov.au/fwo/IDQ60701/IDQ60701.94373.json